Terminal Aerodrome Forecast
Issued by NWS

Home | Current Version | Previous Version | Text Only | Print | Product List | Glossary On
Versions: 1 2 3 4 5 6 7 8 9 10 11 12 13 14 15 16 17 18 19 20
000
FTUS41 KBOX 240538
TAFHYA
TAF
KHYA 240538Z 2406/2506 36014G24KT 4SM BR VCSH OVC005
     FM241500 34015G25KT 6SM BR OVC015
     FM242100 33012G19KT P6SM OVC025
     FM250000 32010KT P6SM OVC050=

USA.gov is the U.S. government's official web portal to all federal, state and local government web resources and services.